createdAt,value
2023-05-01T00:02:10.873Z,1.27
2023-05-01T00:04:38.157Z,1.30
2023-05-01T00:07:05.311Z,0.95
2023-05-01T00:09:32.400Z,1.00
2023-05-01T00:11:59.360Z,0.80
2023-05-01T00:14:26.504Z,1.00
2023-05-01T00:16:53.671Z,1.00
2023-05-01T00:19:20.710Z,0.82
2023-05-01T00:21:48.427Z,0.77
2023-05-01T00:24:17.302Z,1.00
2023-05-01T00:26:45.129Z,0.80
2023-05-01T00:29:12.372Z,0.90
2023-05-01T00:31:41.644Z,0.80
2023-05-01T00:34:09.446Z,1.10
2023-05-01T00:36:36.845Z,0.77
2023-05-01T00:39:04.320Z,1.00
2023-05-01T00:41:34.495Z,0.82
2023-05-01T00:44:02.017Z,1.10
2023-05-01T00:46:30.551Z,1.70
2023-05-01T00:48:58.683Z,1.25
2023-05-01T00:51:27.425Z,1.00
2023-05-01T00:53:54.502Z,1.10
2023-05-01T00:56:21.626Z,1.13
2023-05-01T00:58:53.852Z,1.63
2023-05-01T01:01:24.380Z,0.98
2023-05-01T01:03:51.891Z,1.08
2023-05-01T01:06:37.706Z,0.90
2023-05-01T01:09:31.094Z,1.00
2023-05-01T01:12:06.837Z,1.08
2023-05-01T01:14:48.533Z,1.55
2023-05-01T01:17:32.269Z,0.90
2023-05-01T01:20:19.330Z,1.33
2023-05-01T01:23:01.571Z,1.08
2023-05-01T01:25:47.069Z,0.90
2023-05-01T01:28:21.875Z,1.23
2023-05-01T01:31:19.690Z,1.27
2023-05-01T01:33:49.843Z,1.13
2023-05-01T01:36:21.481Z,3.65
2023-05-01T01:39:18.523Z,0.90
2023-05-01T01:41:51.245Z,1.25
2023-05-01T01:44:24.759Z,1.05
2023-05-01T01:46:54.352Z,1.20
2023-05-01T01:49:25.222Z,1.52
2023-05-01T01:51:55.282Z,1.40
2023-05-01T01:54:35.602Z,1.27
2023-05-01T01:57:04.648Z,1.23
2023-05-01T01:59:35.039Z,1.10
2023-05-01T02:02:05.161Z,1.20
2023-05-01T02:04:33.750Z,1.50
2023-05-01T02:07:02.115Z,1.10
2023-05-01T02:09:31.357Z,1.23
2023-05-01T02:12:01.294Z,1.25
2023-05-01T02:14:29.205Z,1.00
2023-05-01T02:16:58.949Z,1.50
2023-05-01T02:19:27.101Z,1.10
2023-05-01T02:21:57.479Z,1.25
2023-05-01T02:24:25.972Z,0.95
2023-05-01T02:27:00.484Z,1.00
2023-05-01T02:29:28.400Z,1.05
2023-05-01T02:31:56.010Z,1.00
2023-05-01T02:34:23.164Z,0.93
2023-05-01T02:36:50.339Z,1.00
2023-05-01T02:39:17.888Z,1.40
2023-05-01T02:41:46.613Z,1.13
2023-05-01T02:44:14.785Z,1.08
2023-05-01T02:46:45.715Z,1.00
2023-05-01T02:49:15.525Z,1.30
2023-05-01T02:51:43.610Z,1.30
2023-05-01T02:54:11.172Z,1.23
2023-05-01T02:56:38.748Z,1.42
2023-05-01T02:59:05.849Z,1.55
2023-05-01T03:01:32.924Z,1.23
2023-05-01T03:04:00.785Z,1.30
2023-05-01T03:06:29.321Z,1.10
2023-05-01T03:08:56.469Z,1.20
2023-05-01T03:11:24.427Z,1.25
2023-05-01T03:13:52.056Z,1.50
2023-05-01T03:16:19.104Z,1.27
2023-05-01T03:18:46.455Z,1.20
2023-05-01T03:21:13.452Z,1.00
2023-05-01T03:23:40.450Z,1.63
2023-05-01T03:26:07.960Z,1.48
2023-05-01T03:28:35.239Z,1.95
2023-05-01T03:31:02.871Z,1.17
2023-05-01T03:33:31.813Z,0.98
2023-05-01T03:36:03.992Z,1.35
2023-05-01T03:38:32.780Z,1.65
2023-05-01T03:41:25.921Z,1.08
2023-05-01T03:44:09.362Z,1.25
2023-05-01T03:46:42.148Z,1.20
2023-05-01T03:49:14.592Z,1.42
2023-05-01T03:51:47.306Z,1.10
2023-05-01T03:54:14.555Z,1.40
2023-05-01T03:57:02.139Z,1.30
2023-05-01T03:59:30.509Z,1.40
2023-05-01T04:01:58.592Z,1.50
2023-05-01T04:04:29.776Z,1.00
2023-05-01T04:06:58.779Z,1.30
2023-05-01T04:09:26.236Z,1.15
2023-05-01T04:11:53.394Z,1.38
2023-05-01T04:14:20.543Z,1.30
2023-05-01T04:16:47.904Z,1.30
2023-05-01T04:19:15.066Z,1.30
2023-05-01T04:21:44.986Z,1.50
2023-05-01T04:24:12.214Z,1.50
2023-05-01T04:26:39.387Z,2.50
2023-05-01T04:29:07.223Z,1.40
2023-05-01T04:31:34.988Z,1.67
2023-05-01T04:34:02.305Z,1.40
2023-05-01T04:36:29.759Z,1.73
2023-05-01T04:38:58.544Z,1.92
2023-05-01T04:41:26.229Z,1.77
2023-05-01T04:43:53.630Z,2.95
2023-05-01T04:46:21.201Z,1.50
2023-05-01T04:48:48.162Z,1.83
2023-05-01T04:51:15.884Z,1.67
2023-05-01T04:53:42.956Z,1.70
2023-05-01T04:56:19.967Z,1.60
2023-05-01T04:58:48.697Z,1.83
2023-05-01T05:01:20.424Z,1.75
2023-05-01T05:03:49.814Z,1.90
2023-05-01T05:06:17.768Z,1.63
2023-05-01T05:08:44.811Z,1.85
2023-05-01T05:11:12.270Z,1.85
2023-05-01T05:13:57.643Z,1.50
2023-05-01T05:16:25.170Z,1.83
2023-05-01T05:18:52.547Z,1.80
2023-05-01T05:21:19.668Z,2.72
2023-05-01T05:26:18.747Z,2.85
2023-05-01T05:28:48.555Z,2.15
2023-05-01T05:31:16.146Z,1.75
2023-05-01T05:33:43.380Z,1.80
2023-05-01T05:36:11.553Z,1.80
2023-05-01T05:38:41.826Z,1.77
2023-05-01T05:41:11.832Z,1.77
2023-05-01T05:43:40.091Z,2.10
2023-05-01T05:46:09.023Z,1.98
2023-05-01T05:48:37.437Z,1.80
2023-05-01T05:51:04.963Z,1.83
2023-05-01T05:53:32.257Z,1.70
2023-05-01T05:55:59.477Z,1.65
2023-05-01T05:58:27.202Z,1.90
2023-05-01T06:00:56.315Z,2.10
2023-05-01T06:03:23.774Z,1.75
2023-05-01T06:05:53.668Z,1.38
2023-05-01T06:08:20.744Z,2.58
2023-05-01T06:10:48.546Z,2.03
2023-05-01T06:13:16.401Z,1.85
2023-05-01T06:15:48.797Z,1.83
2023-05-01T06:18:16.366Z,1.70
2023-05-01T06:20:43.513Z,1.73
2023-05-01T06:23:11.033Z,2.03
2023-05-01T06:26:08.288Z,1.90
2023-05-01T06:28:35.610Z,2.15
2023-05-01T06:31:03.498Z,1.90
2023-05-01T06:33:34.537Z,2.08
2023-05-01T06:36:11.623Z,1.50
2023-05-01T06:38:38.585Z,1.58
2023-05-01T06:41:06.291Z,1.77
2023-05-01T06:43:33.633Z,2.65
2023-05-01T06:46:00.972Z,1.70
2023-05-01T06:48:28.128Z,1.83
2023-05-01T06:50:56.338Z,1.92
2023-05-01T06:53:23.689Z,1.73
2023-05-01T06:55:51.393Z,1.83
2023-05-01T06:58:23.823Z,1.58
2023-05-01T07:00:52.583Z,1.60
2023-05-01T07:03:19.764Z,2.00
2023-05-01T07:05:46.826Z,2.03
2023-05-01T07:08:16.388Z,1.65
2023-05-01T07:10:43.686Z,1.60
2023-05-01T07:13:10.694Z,2.20
2023-05-01T07:15:38.037Z,2.08
2023-05-01T07:18:08.180Z,2.30
2023-05-01T07:20:35.529Z,1.95
2023-05-01T07:23:02.913Z,1.98
2023-05-01T07:25:31.317Z,2.25
2023-05-01T07:28:00.842Z,1.98
2023-05-01T07:30:30.456Z,1.50
2023-05-01T07:32:58.101Z,3.33
2023-05-01T07:35:25.508Z,2.50
2023-05-01T07:37:55.030Z,1.85
2023-05-01T07:40:22.148Z,2.28
2023-05-01T07:42:49.141Z,2.13
2023-05-01T07:45:16.264Z,2.03
2023-05-01T07:47:43.388Z,2.47
2023-05-01T07:50:11.718Z,2.30
2023-05-01T07:52:39.729Z,2.10
2023-05-01T07:55:07.444Z,2.17
2023-05-01T07:57:35.974Z,2.38
2023-05-01T08:00:03.292Z,2.63
2023-05-01T08:02:41.696Z,2.67
2023-05-01T08:05:09.403Z,2.20
2023-05-01T08:07:36.685Z,2.40
2023-05-01T08:10:04.161Z,2.50
2023-05-01T08:12:31.476Z,2.00
2023-05-01T08:14:58.471Z,2.45
2023-05-01T08:17:25.812Z,2.28
2023-05-01T08:19:56.603Z,2.45
2023-05-01T08:22:27.165Z,2.30
2023-05-01T08:24:54.122Z,2.17
2023-05-01T08:27:21.490Z,2.22
2023-05-01T08:29:48.429Z,2.10
2023-05-01T08:32:16.050Z,2.22
2023-05-01T08:34:43.190Z,2.08
2023-05-01T08:37:10.270Z,2.03
2023-05-01T08:39:37.339Z,2.15
2023-05-01T08:42:05.398Z,1.98
2023-05-01T08:44:33.357Z,2.20
2023-05-01T08:47:16.857Z,2.15
2023-05-01T08:49:45.368Z,1.90
2023-05-01T08:52:14.426Z,2.15
2023-05-01T08:54:47.009Z,2.70
2023-05-01T08:57:14.273Z,2.85
2023-05-01T08:59:41.716Z,2.58
2023-05-01T09:02:11.512Z,2.70
2023-05-01T09:04:40.377Z,2.38
2023-05-01T09:07:09.302Z,2.70
2023-05-01T09:09:37.201Z,2.50
2023-05-01T09:12:27.907Z,2.47
2023-05-01T09:14:56.473Z,2.40
2023-05-01T09:17:24.899Z,2.72
2023-05-01T09:19:52.816Z,2.13
2023-05-01T09:22:20.524Z,2.35
2023-05-01T09:24:47.707Z,2.30
2023-05-01T09:27:15.464Z,2.28
2023-05-01T09:29:46.641Z,1.70
2023-05-01T09:32:30.599Z,2.20
2023-05-01T09:35:14.826Z,2.25
2023-05-01T09:37:42.229Z,1.90
2023-05-01T09:40:14.965Z,1.98
2023-05-01T09:42:56.095Z,1.95
2023-05-01T09:45:24.109Z,2.13
2023-05-01T09:47:51.127Z,2.13
2023-05-01T09:50:35.087Z,2.17
2023-05-01T09:53:04.995Z,2.55
2023-05-01T09:55:32.865Z,2.20
2023-05-01T09:58:00.367Z,2.13
2023-05-01T10:00:28.090Z,1.88
2023-05-01T10:02:55.480Z,1.85
2023-05-01T10:05:23.583Z,2.00
2023-05-01T10:07:57.806Z,1.95
2023-05-01T10:10:24.859Z,1.75
2023-05-01T10:12:52.186Z,2.20
2023-05-01T10:15:26.369Z,2.40
2023-05-01T10:17:55.031Z,2.00
2023-05-01T10:20:22.163Z,2.22
2023-05-01T10:22:49.790Z,2.20
2023-05-01T10:25:20.494Z,2.45
2023-05-01T10:27:48.562Z,2.15
2023-05-01T10:30:17.986Z,2.92
2023-05-01T10:32:46.022Z,2.97
2023-05-01T10:35:21.903Z,2.42
2023-05-01T10:38:02.805Z,2.30
2023-05-01T10:40:50.095Z,2.55
2023-05-01T10:43:26.103Z,2.40
2023-05-01T10:45:54.281Z,2.30
2023-05-01T10:48:39.532Z,2.30
2023-05-01T10:51:21.306Z,2.40
2023-05-01T10:56:34.015Z,2.72
2023-05-01T10:59:04.860Z,2.45
2023-05-01T11:01:44.979Z,2.67
2023-05-01T11:04:22.021Z,2.83
2023-05-01T11:07:11.462Z,3.00
2023-05-01T11:09:42.612Z,3.13
2023-05-01T11:12:11.557Z,2.40
2023-05-01T11:15:08.055Z,2.45
2023-05-01T11:17:44.178Z,2.47
2023-05-01T11:20:26.436Z,2.55
2023-05-01T11:22:55.033Z,3.55
2023-05-01T11:25:23.815Z,3.30
2023-05-01T11:27:54.736Z,3.08
2023-05-01T11:30:22.299Z,3.20
2023-05-01T11:32:51.346Z,2.58
2023-05-01T11:35:22.581Z,3.85
2023-05-01T11:37:51.553Z,2.58
2023-05-01T11:40:30.926Z,2.83
2023-05-01T11:43:05.452Z,2.20
2023-05-01T11:45:33.673Z,2.58
2023-05-01T11:48:04.380Z,3.28
2023-05-01T11:50:36.305Z,2.20
2023-05-01T11:53:11.648Z,2.47
2023-05-01T11:55:40.348Z,2.45
2023-05-01T11:58:07.755Z,2.47
2023-05-01T12:00:39.666Z,2.30
2023-05-01T12:03:14.759Z,2.28
2023-05-01T12:05:44.409Z,2.60
2023-05-01T12:08:14.980Z,3.83
2023-05-01T12:10:43.766Z,2.20
2023-05-01T12:13:13.675Z,2.55
2023-05-01T12:15:43.767Z,2.28
2023-05-01T12:18:12.525Z,1.95
2023-05-01T12:20:40.828Z,1.95
2023-05-01T12:23:10.758Z,2.25
2023-05-01T12:25:39.575Z,2.42
2023-05-01T12:28:20.431Z,2.28
2023-05-01T12:30:49.387Z,2.20
2023-05-01T12:33:18.786Z,2.35
2023-05-01T12:35:48.227Z,2.50
2023-05-01T12:38:21.067Z,2.17
2023-05-01T12:40:59.388Z,2.50
2023-05-01T12:43:44.547Z,2.10
2023-05-01T12:46:14.807Z,2.20
2023-05-01T12:48:42.739Z,2.42
2023-05-01T12:51:09.845Z,2.30
2023-05-01T12:53:44.436Z,2.05
2023-05-01T12:56:24.569Z,2.03
2023-05-01T12:58:55.366Z,2.05
2023-05-01T13:01:27.467Z,2.20
2023-05-01T13:03:58.033Z,1.73
2023-05-01T13:06:34.677Z,1.77
2023-05-01T13:09:10.304Z,2.20
2023-05-01T13:11:38.103Z,2.33
2023-05-01T13:14:09.209Z,1.95
2023-05-01T13:16:46.547Z,2.08
2023-05-01T13:19:14.560Z,2.00
2023-05-01T13:21:49.422Z,1.83
2023-05-01T13:24:16.447Z,1.98
2023-05-01T13:26:45.247Z,2.05
2023-05-01T13:29:16.017Z,1.70
2023-05-01T13:31:46.458Z,1.40
2023-05-01T13:34:27.694Z,2.15
2023-05-01T13:36:58.501Z,1.83
2023-05-01T13:39:25.780Z,1.60
2023-05-01T13:41:53.366Z,1.70
2023-05-01T13:44:21.929Z,1.40
2023-05-01T13:46:50.504Z,1.17
2023-05-01T13:49:24.862Z,1.75
2023-05-01T13:51:52.590Z,1.95
2023-05-01T13:54:19.869Z,1.50
2023-05-01T13:56:47.242Z,1.63
2023-05-01T13:59:15.348Z,1.38
2023-05-01T14:01:46.462Z,1.33
2023-05-01T14:04:18.583Z,1.58
2023-05-01T14:06:48.593Z,1.70
2023-05-01T14:09:19.298Z,1.25
2023-05-01T14:11:48.159Z,1.40
2023-05-01T14:14:17.180Z,1.30
2023-05-01T14:16:49.145Z,1.15
2023-05-01T14:19:18.484Z,1.23
2023-05-01T14:21:46.944Z,1.42
2023-05-01T14:24:18.005Z,1.30
2023-05-01T14:26:48.249Z,1.25
2023-05-01T14:29:25.947Z,1.40
2023-05-01T14:31:54.712Z,1.77
2023-05-01T14:34:25.029Z,1.35
2023-05-01T14:36:56.006Z,1.88
2023-05-01T14:39:23.221Z,1.38
2023-05-01T14:41:50.162Z,1.50
2023-05-01T14:44:20.557Z,1.58
2023-05-01T14:46:52.106Z,1.40
2023-05-01T14:51:48.807Z,1.45
2023-05-01T14:54:16.501Z,2.65
2023-05-01T14:56:44.757Z,2.53
2023-05-01T14:59:12.761Z,2.05
2023-05-01T15:01:40.801Z,2.63
2023-05-01T15:04:08.197Z,2.30
2023-05-01T15:06:35.391Z,3.33
2023-05-01T15:09:05.261Z,3.90
2023-05-01T15:11:32.419Z,2.40
2023-05-01T15:13:59.511Z,3.10
2023-05-01T15:16:28.644Z,2.30
2023-05-01T15:18:55.726Z,2.70
2023-05-01T15:21:22.788Z,3.13
2023-05-01T15:23:49.768Z,3.33
2023-05-01T15:26:16.892Z,2.88
2023-05-01T15:28:43.856Z,3.42
2023-05-01T15:31:12.157Z,4.03
2023-05-01T15:33:39.302Z,3.80
2023-05-01T15:36:06.746Z,4.30
2023-05-01T15:38:33.795Z,4.72
2023-05-01T15:41:00.840Z,4.65
2023-05-01T15:43:28.909Z,4.20
2023-05-01T15:45:59.189Z,3.92
2023-05-01T15:48:26.763Z,3.55
2023-05-01T15:50:53.896Z,3.65
2023-05-01T15:53:21.342Z,4.07
2023-05-01T15:55:48.311Z,3.50
2023-05-01T15:58:16.055Z,3.28
2023-05-01T16:00:47.161Z,3.80
2023-05-01T16:03:16.008Z,3.60
2023-05-01T16:05:47.083Z,3.55
2023-05-01T16:08:14.664Z,3.45
2023-05-01T16:10:41.699Z,3.92
2023-05-01T16:13:08.812Z,3.65
2023-05-01T16:15:37.777Z,4.35
2023-05-01T16:18:06.124Z,3.92
2023-05-01T16:20:42.920Z,4.43
2023-05-01T16:23:10.685Z,4.28
2023-05-01T16:25:42.599Z,4.47
2023-05-01T16:28:09.637Z,4.65
2023-05-01T16:30:44.145Z,3.60
2023-05-01T16:33:19.413Z,4.30
2023-05-01T16:35:50.201Z,4.28
2023-05-01T16:38:21.587Z,4.45
2023-05-01T16:40:53.371Z,3.78
2023-05-01T16:43:22.280Z,4.78
2023-05-01T16:45:51.151Z,5.10
2023-05-01T16:48:23.220Z,4.70
2023-05-01T16:50:51.148Z,6.13
2023-05-01T16:53:18.453Z,4.85
2023-05-01T16:55:45.559Z,5.80
2023-05-01T16:58:12.602Z,4.80
2023-05-01T17:00:40.080Z,4.38
2023-05-01T17:03:26.543Z,5.47
2023-05-01T17:05:54.000Z,5.57
2023-05-01T17:08:21.186Z,5.68
2023-05-01T17:10:50.039Z,4.50
2023-05-01T17:13:17.139Z,4.45
2023-05-01T17:15:44.284Z,4.70
2023-05-01T17:18:11.974Z,4.45
2023-05-01T17:20:39.219Z,4.78
2023-05-01T17:23:07.574Z,4.88
2023-05-01T17:25:34.774Z,4.55
2023-05-01T17:28:04.066Z,4.22
2023-05-01T17:30:32.724Z,4.97
2023-05-01T17:33:03.077Z,4.68
2023-05-01T17:37:59.696Z,4.82
2023-05-01T17:40:28.159Z,5.68
2023-05-01T17:42:55.426Z,4.97
2023-05-01T17:45:22.786Z,4.80
2023-05-01T17:47:49.865Z,5.80
2023-05-01T17:50:19.145Z,4.38
2023-05-01T17:52:46.297Z,4.20
2023-05-01T17:55:18.044Z,4.25
2023-05-01T17:57:46.538Z,4.78
2023-05-01T18:00:14.626Z,4.60
2023-05-01T18:02:44.771Z,5.47
2023-05-01T18:05:13.326Z,4.63
2023-05-01T18:07:41.934Z,4.60
2023-05-01T18:10:10.140Z,5.45
2023-05-01T18:12:37.442Z,5.30
2023-05-01T18:15:04.720Z,4.15
2023-05-01T18:17:32.934Z,4.82
2023-05-01T18:20:01.039Z,5.10
2023-05-01T18:22:28.947Z,4.60
2023-05-01T18:24:56.672Z,5.55
2023-05-01T18:27:26.028Z,6.20
2023-05-01T18:29:54.779Z,5.60
2023-05-01T18:32:24.736Z,6.30
2023-05-01T18:34:57.687Z,6.40
2023-05-01T18:37:25.963Z,6.47
2023-05-01T18:39:52.999Z,5.97
2023-05-01T18:42:20.070Z,6.32
2023-05-01T18:44:47.403Z,7.18
2023-05-01T18:47:14.397Z,6.80
2023-05-01T18:49:41.352Z,6.18
2023-05-01T18:52:08.773Z,6.57
2023-05-01T18:54:37.282Z,8.65
2023-05-01T18:57:06.388Z,6.65
2023-05-01T18:59:33.437Z,7.20
2023-05-01T19:02:01.679Z,6.80
2023-05-01T19:04:31.569Z,6.90
2023-05-01T19:07:00.126Z,8.32
2023-05-01T19:09:27.110Z,9.70
2023-05-01T19:11:54.196Z,8.05
2023-05-01T19:14:21.717Z,7.47
2023-05-01T19:16:48.907Z,7.25
2023-05-01T19:19:17.592Z,8.38
2023-05-01T19:21:44.631Z,7.18
2023-05-01T19:24:11.722Z,7.90
2023-05-01T19:26:39.668Z,9.48
2023-05-01T19:29:07.121Z,8.52
2023-05-01T19:31:34.364Z,7.57
2023-05-01T19:34:01.478Z,7.82
2023-05-01T19:36:28.663Z,8.43
2023-05-01T19:38:56.143Z,8.90
2023-05-01T19:41:23.158Z,8.45
2023-05-01T19:43:50.244Z,8.77
2023-05-01T19:46:17.307Z,9.32
2023-05-01T19:48:44.419Z,8.18
2023-05-01T19:51:13.008Z,8.25
2023-05-01T19:53:40.211Z,8.40
2023-05-01T19:56:07.547Z,8.43
2023-05-01T19:58:34.928Z,7.80
2023-05-01T20:01:05.884Z,7.53
2023-05-01T20:03:33.947Z,7.35
2023-05-01T20:06:01.987Z,7.70
2023-05-01T20:08:29.054Z,8.60
2023-05-01T20:10:56.886Z,8.68
2023-05-01T20:13:24.317Z,8.05
2023-05-01T20:15:51.775Z,8.05
2023-05-01T20:18:19.285Z,8.30
2023-05-01T20:20:47.313Z,7.40
2023-05-01T20:23:16.880Z,9.32
2023-05-01T20:25:46.641Z,7.90
2023-05-01T20:28:15.001Z,8.35
2023-05-01T20:30:44.376Z,8.27
2023-05-01T20:33:14.436Z,8.23
2023-05-01T20:35:41.557Z,8.60
2023-05-01T20:38:08.624Z,7.70
2023-05-01T20:40:40.851Z,8.63
2023-05-01T20:43:14.265Z,8.30
2023-05-01T20:45:41.455Z,7.80
2023-05-01T20:48:35.316Z,7.15
2023-05-01T20:51:02.496Z,7.18
2023-05-01T20:53:29.673Z,8.57
2023-05-01T20:55:56.747Z,7.30
2023-05-01T20:58:23.768Z,7.15
2023-05-01T21:00:54.285Z,8.00
2023-05-01T21:03:22.044Z,8.73
2023-05-01T21:05:49.194Z,8.18
2023-05-01T21:08:16.434Z,8.65
2023-05-01T21:10:44.049Z,10.15
2023-05-01T21:13:12.127Z,8.52
2023-05-01T21:15:45.354Z,7.82
2023-05-01T21:18:14.683Z,8.90
2023-05-01T21:20:42.693Z,7.38
2023-05-01T21:23:09.861Z,9.68
2023-05-01T21:25:36.957Z,7.53
2023-05-01T21:28:06.426Z,8.35
2023-05-01T21:30:35.269Z,9.25
2023-05-01T21:33:05.194Z,8.43
2023-05-01T21:35:32.473Z,8.00
2023-05-01T21:38:04.068Z,7.78
2023-05-01T21:40:35.889Z,8.07
